地図

経路データ

SID SEASON NUMBER BASIN SUBBASIN NAME ISO_TIME NATURE LAT LON WMO_WIND WMO_PRES WMO_AGENCY TRACK_TYPE DIST2LAND LANDFALL IFLAG USA_AGENCY USA_ATCF_ID USA_LAT USA_LON USA_RECORD USA_STATUS USA_WIND USA_PRES USA_SSHS USA_R34_NE USA_R34_SE USA_R34_SW USA_R34_NW USA_R50_NE USA_R50_SE USA_R50_SW USA_R50_NW USA_R64_NE USA_R64_SE USA_R64_SW USA_R64_NW USA_POCI USA_ROCI USA_RMW USA_EYE TOKYO_LAT TOKYO_LON TOKYO_GRADE TOKYO_WIND TOKYO_PRES TOKYO_R50_DIR TOKYO_R50_LONG TOKYO_R50_SHORT TOKYO_R30_DIR TOKYO_R30_LONG TOKYO_R30_SHORT TOKYO_LAND CMA_LAT CMA_LON CMA_CAT CMA_WIND CMA_PRES HKO_LAT HKO_LON HKO_CAT HKO_WIND HKO_PRES NEWDELHI_LAT NEWDELHI_LON NEWDELHI_GRADE NEWDELHI_WIND NEWDELHI_PRES NEWDELHI_CI NEWDELHI_DP NEWDELHI_POCI REUNION_LAT REUNION_LON REUNION_TYPE REUNION_WIND REUNION_PRES REUNION_TNUM REUNION_CI REUNION_RMW REUNION_R34_NE REUNION_R34_SE REUNION_R34_SW REUNION_R34_NW REUNION_R50_NE REUNION_R50_SE REUNION_R50_SW REUNION_R50_NW REUNION_R64_NE REUNION_R64_SE REUNION_R64_SW REUNION_R64_NW BOM_LAT BOM_LON BOM_TYPE BOM_WIND BOM_PRES BOM_TNUM BOM_CI BOM_RMW BOM_R34_NE BOM_R34_SE BOM_R34_SW BOM_R34_NW BOM_R50_NE BOM_R50_SE BOM_R50_SW BOM_R50_NW BOM_R64_NE BOM_R64_SE BOM_R64_SW BOM_R64_NW BOM_ROCI BOM_POCI BOM_EYE BOM_POS_METHOD BOM_PRES_METHOD NADI_LAT NADI_LON NADI_CAT NADI_WIND NADI_PRES WELLINGTON_LAT WELLINGTON_LON WELLINGTON_WIND WELLINGTON_PRES DS824_LAT DS824_LON DS824_STAGE DS824_WIND DS824_PRES TD9636_LAT TD9636_LON TD9636_STAGE TD9636_WIND TD9636_PRES TD9635_LAT TD9635_LON TD9635_WIND TD9635_PRES TD9635_ROCI NEUMANN_LAT NEUMANN_LON NEUMANN_CLASS NEUMANN_WIND NEUMANN_PRES MLC_LAT MLC_LON MLC_CLASS MLC_WIND MLC_PRES USA_GUST BOM_GUST BOM_GUST_PER REUNION_GUST REUNION_GUST_PER USA_SEAHGT USA_SEARAD_NE USA_SEARAD_SE USA_SEARAD_SW USA_SEARAD_NW STORM_SPEED STORM_DIR
1982339N07139 1982 103 WP MM ROGER 1982-12-05 00:00:00 NR 6.80000 139.200 main 927 927 __________O___ -1 6.80000 139.200 0 2 84
1982339N07139 1982 103 WP MM ROGER 1982-12-05 03:00:00 NR 6.81110 139.315 main 931 931 __________P___ -1 6.81110 139.315 0 2 83
1982339N07139 1982 103 WP MM ROGER 1982-12-05 06:00:00 NR 6.82352 139.406 main 936 936 __________P___ -1 6.82352 139.406 0 1 78
1982339N07139 1982 103 WP MM ROGER 1982-12-05 09:00:00 NR 6.83861 139.452 main 940 940 __________P___ -1 6.83861 139.452 0 0 30
1982339N07139 1982 103 WP MM ROGER 1982-12-05 12:00:00 NR 6.85773 139.430 main 946 941 __________P___ -1 6.85773 139.430 0 1 288
1982339N07139 1982 103 WP MM ROGER 1982-12-05 15:00:00 NR 6.88223 139.317 main 941 933 __________P___ -1 6.88223 139.317 0 3 279
1982339N07139 1982 103 WP MM ROGER 1982-12-05 18:00:00 NR 6.91336 139.089 main 933 917 __________P___ -1 6.91336 139.089 0 6 277
1982339N07139 1982 103 WP MM ROGER 1982-12-05 21:00:00 NR 6.95229 138.725 main 927 909 __________P___ -1 6.95229 138.725 0 9 276
1982339N07139 1982 103 WP MM ROGER 1982-12-06 00:00:00 NR 7.00000 138.200 main 909 890 __________O___ -1 7.00000 138.200 0 12 275
1982339N07139 1982 103 WP MM ROGER 1982-12-06 03:00:00 NR 7.06044 137.509 main 899 884 __________P___ -1 7.06044 137.509 0 15 276
1982339N07139 1982 103 WP MM ROGER 1982-12-06 06:00:00 NR 7.15033 136.711 main 893 887 __________P___ -1 7.15033 136.711 0 16 278
1982339N07139 1982 103 WP MM ROGER 1982-12-06 09:00:00 NR 7.28992 135.883 main 897 896 __________P___ -1 7.28992 135.883 0 16 282
1982339N07139 1982 103 WP MM ROGER 1982-12-06 12:00:00 NR 7.50000 135.100 main 903 875 __________O___ -1 7.50000 135.100 0 14 290
1982339N07139 1982 103 WP MM ROGER 1982-12-06 15:00:00 NR 7.78967 134.524 main 871 817 __________P___ -1 7.78967 134.524 0 13 301
1982339N07139 1982 103 WP MM ROGER 1982-12-06 18:00:00 NR 8.15061 133.994 main 817 765 __________P___ -1 8.15061 133.994 0 13 306
1982339N07139 1982 103 WP MM ROGER 1982-12-06 21:00:00 NR 8.56131 133.442 main 755 698 __________P___ -1 8.56131 133.442 0 15 306
1982339N07139 1982 103 WP MM ROGER 1982-12-07 00:00:00 NR 9.00000 132.800 main 698 624 __________O___ -1 9.00000 132.800 0 17 301
1982339N07139 1982 103 WP MM ROGER 1982-12-07 03:00:00 NR 9.43702 131.972 main 624 559 __________P___ -1 9.43702 131.972 0 21 308
1982339N07139 1982 103 WP MM ROGER 1982-12-07 06:00:00 TS 10.2788 131.165 main 562 479 O_O_______P___ jtwc_wp WP281982 10.1000 130.800 25 -1 12.0000 132.000 1 23 1006 9.89313 131.048 0 21 308
1982339N07139 1982 103 WP MM ROGER 1982-12-07 09:00:00 TS 10.7277 130.284 main 479 382 P_P_______P___ WP281982 10.4553 129.975 30 -1 11.7506 131.012 1 26 1005 10.3525 130.074 0 21 294
1982339N07139 1982 103 WP MM ROGER 1982-12-07 12:00:00 TS 11.1000 129.245 1006 tokyo main 371 275 OOO_______O___ jtwc_wp WP281982 10.8000 129.100 35 0 12.0000 128.000 2 1006 0 0 0 11.5000 130.000 1 29 1004 10.8000 129.100 2 35 21 287
1982339N07139 1982 103 WP MM ROGER 1982-12-07 15:00:00 TS 11.3446 128.283 main 275 187 PPP_______P___ WP281982 11.1350 128.150 37 0 12.1227 127.508 2 1005 0 0 11.2873 128.949 1 29 1003 11.2226 128.136 2 38 19 286
1982339N07139 1982 103 WP MM ROGER 1982-12-07 18:00:00 TS 11.6214 127.343 1004 tokyo main 176 111 OOO_______P___ jtwc_wp WP281982 11.5000 127.200 40 0 12.2000 127.000 2 1004 0 0 0 11.3000 127.900 1 29 1002 11.6304 127.188 2 42 19 290
1982339N07139 1982 103 WP MM ROGER 1982-12-07 21:00:00 TS 11.9794 126.484 main 111 34 PPP_______P___ WP281982 11.9424 126.305 45 0 12.2199 126.465 2 1002 0 0 11.7323 126.871 1 33 1000 12.0229 126.296 2 46 18 294
1982339N07139 1982 103 WP MM ROGER 1982-12-08 00:00:00 TS 12.3353 125.712 40 1000 tokyo main 24 0 OOOO______O___ jtwc_wp WP281982 12.4000 125.500 50 0 12.3000 125.900 3 40 1000 0 9 150 150 0 12.3000 125.900 2 38 998 12.1000 125.900 TS 45 1002 12.4000 125.500 2 50 16 294
1982339N07139 1982 103 WP MM ROGER 1982-12-08 03:00:00 TS 12.6503 124.967 main 22 22 PPPP______P___ WP281982 12.8223 124.790 52 0 12.5551 125.285 3 40 1000 0 9 150 150 12.6426 124.945 2 38 996 12.2708 125.040 TS 45 1001 12.7713 124.812 2 51 15 296
1982339N07139 1982 103 WP MM ROGER 1982-12-08 06:00:00 TS 12.9850 124.327 40 1000 tokyo main 21 10 OOOO______P___ jtwc_wp WP281982 13.2000 124.200 55 0 12.9000 124.700 3 40 1000 0 9 150 150 0 13.0000 124.200 2 38 995 12.6000 124.300 TS 45 1000 13.1286 124.227 2 52 13 305
1982339N07139 1982 103 WP MM ROGER 1982-12-08 09:00:00 TS 13.3970 123.857 main 15 0 PPPP______P___ WP281982 13.5072 123.720 55 0 13.2498 124.227 3 40 998 0 9 150 150 13.5793 123.855 2 43 992 13.1771 123.755 TS 47 997 13.4717 123.728 2 53 12 315
1982339N07139 1982 103 WP MM ROGER 1982-12-08 12:00:00 TS 13.8200 123.460 40 996 tokyo main 0 0 OOOO______O___ jtwc_wp WP281982 13.8000 123.300 55 0 13.6000 123.800 3 40 996 0 9 150 150 0 14.1000 123.600 3 48 990 13.8000 123.300 STS 50 995 13.8000 123.300 2 55 11 310
1982339N07139 1982 103 WP MM ROGER 1982-12-08 15:00:00 TS 14.1385 122.962 main 0 0 PPPP______P___ WP281982 14.1576 122.813 57 0 13.8924 123.350 3 42 993 0 9 150 150 14.2878 123.042 3 48 990 14.2526 122.755 STS 52 992 14.1018 122.849 2 57 11 303
1982339N07139 1982 103 WP MM ROGER 1982-12-08 18:00:00 TS 14.4184 122.514 45 990 tokyo main 22 22 OOOO______P___ jtwc_wp WP281982 14.5000 122.400 60 0 14.2000 122.900 3 45 990 0 9 150 150 0 14.4000 122.500 3 48 990 14.6000 122.300 STS 55 990 14.3921 122.470 2 60 9 307
1982339N07139 1982 103 WP MM ROGER 1982-12-08 21:00:00 TS 14.7097 122.187 main 53 39 PPPP______P___ WP281982 14.7424 122.147 62 0 14.5776 122.405 3 52 985 0 9 137 137 14.6773 122.168 3 53 985 14.8648 122.032 STS 57 985 14.6864 122.181 2 62 8 319
1982339N07139 1982 103 WP MM ROGER 1982-12-09 00:00:00 TS 15.0200 121.980 60 980 tokyo main 46 44 OOOO______O___ jtwc_wp WP281982 15.0000 122.000 65 1 15.0000 122.000 4 60 980 9 60 60 9 125 125 0 15.0000 122.000 3 58 980 15.1000 121.900 STS 60 980 15.0000 122.000 4 65 7 334
1982339N07139 1982 103 WP MM ROGER 1982-12-09 03:00:00 TS 15.3611 121.858 main 44 21 PPPP______P___ WP281982 15.3850 121.840 65 1 15.4424 121.760 4 60 982 9 50 50 9 112 112 15.2475 121.962 3 58 980 15.3774 121.790 STS 60 980 15.3532 121.937 4 63 7 351
1982339N07139 1982 103 WP MM ROGER 1982-12-09 06:00:00 TS 15.7454 121.856 60 985 tokyo main 32 0 OOOO______P___ jtwc_wp WP281982 15.8000 121.800 65 1 15.9000 121.700 4 60 985 9 40 40 9 100 100 0 15.6000 122.000 3 58 980 15.7000 121.800 STS 60 980 15.7272 121.979 4 62 8 6
1982339N07139 1982 103 WP MM ROGER 1982-12-09 09:00:00 TS 16.1941 121.958 main 10 0 PPPP______P___ WP281982 16.1501 121.962 62 0 16.3650 121.805 4 55 987 9 9 100 100 16.2500 121.970 3 58 980 16.0926 121.970 STS 57 985 16.1127 122.081 4 61 9 16
1982339N07139 1982 103 WP MM ROGER 1982-12-09 12:00:00 TS 16.6400 122.120 50 990 tokyo main 0 0 OOOO______O___ jtwc_wp WP281982 16.5000 122.200 60 0 16.8000 122.000 4 50 990 0 9 100 100 0 16.9000 122.000 3 58 980 16.5000 122.200 STS 55 990 16.5000 122.200 2 60 9 20
1982339N07139 1982 103 WP MM ROGER 1982-12-09 15:00:00 TS 17.0184 122.275 main 0 0 PPPP______P___ WP281982 16.9000 122.380 55 0 17.1800 122.158 4 50 990 0 9 95 95 17.2600 122.170 3 53 982 16.8650 122.380 STS 52 992 16.8872 122.288 2 55 8 22
1982339N07139 1982 103 WP MM ROGER 1982-12-09 18:00:00 TS 17.3545 122.416 50 990 tokyo main 11 11 OOOO______P___ jtwc_wp WP281982 17.3000 122.500 50 0 17.5000 122.300 4 50 990 0 9 90 90 0 17.5000 122.400 3 48 985 17.2000 122.500 STS 50 995 17.2725 122.380 2 50 7 19
1982339N07139 1982 103 WP MM ROGER 1982-12-09 21:00:00 TS 17.6668 122.502 main 42 38 PPPP______P___ WP281982 17.6725 122.523 45 0 17.7725 122.423 4 50 990 0 9 90 90 17.7424 122.578 3 48 986 17.5000 122.530 STS 47 996 17.6466 122.457 2 45 6 13
1982339N07139 1982 103 WP MM ROGER 1982-12-10 00:00:00 TS 17.9600 122.560 50 990 tokyo main 43 33 OOOO______O___ jtwc_wp WP281982 18.0000 122.500 40 0 18.0000 122.500 4 50 990 0 9 90 90 0 18.0000 122.800 3 48 988 17.8000 122.500 TS 45 998 18.0000 122.500 2 40 6 11
1982339N07139 1982 103 WP MM ROGER 1982-12-10 03:00:00 TS 18.2536 122.620 main 31 31 PPPP______P___ WP281982 18.2500 122.515 35 0 18.1775 122.537 4 45 993 0 9 90 90 18.3650 123.120 3 43 990 18.1500 122.458 TS 40 1000 18.3256 122.470 2 36 6 5
1982339N07139 1982 103 WP MM ROGER 1982-12-10 06:00:00 TS 18.5379 122.618 40 996 tokyo main 33 33 OOOO______P___ jtwc_wp WP281982 18.5000 122.500 30 -1 18.4000 122.500 3 40 996 0 9 90 90 0 18.7000 123.500 2 38 992 18.5000 122.400 TS 35 1002 18.6300 122.408 2 32 6 352
1982339N07139 1982 103 WP MM ROGER 1982-12-10 09:00:00 TS 18.8382 122.531 main 49 49 PPPP______P___ WP281982 18.8350 122.400 27 -1 18.7700 122.365 3 1000 0 9 18.8951 123.898 2 33 995 18.8000 122.335 TS 32 1003 18.9194 122.342 2 28 7 342
1982339N07139 1982 103 WP MM ROGER 1982-12-10 12:00:00 TS 19.1625 122.400 1004 tokyo main 90 90 OOOO______O___ jtwc_wp WP281982 19.2000 122.300 25 -1 19.2000 122.200 2 1004 0 0 0 19.0000 124.300 1 29 998 19.1000 122.300 TD 30 1005 19.2000 122.300 1 25 7 338
1982339N07139 1982 103 WP MM ROGER 1982-12-10 15:00:00 TS 19.5092 122.242 main 123 123 PP_P______P___ WP281982 19.5550 122.275 25 -1 19.5850 122.078 2 1006 0 0 1 19.4425 122.327 TD 27 1005 19.4772 122.304 1 7 348
1982339N07139 1982 103 WP MM ROGER 1982-12-10 18:00:00 TS 19.8631 122.245 1008 tokyo main 167 167 OO_O______P___ jtwc_wp WP281982 19.9000 122.300 25 -1 20.0000 122.000 2 1008 0 0 0 19.8000 122.400 TD 25 1005 19.7525 122.347 1 8 358
1982339N07139 1982 103 WP MM ROGER 1982-12-10 21:00:00 TS 20.2862 122.235 main 212 197 _P_P______P___ WP281982 -1 20.5598 121.910 2 1009 0 0 20.1424 122.470 TD 25 1006 20.0266 122.417 1 9 3
1982339N07139 1982 103 WP MM ROGER 1982-12-11 00:00:00 TS 20.7250 122.288 1010 tokyo main 197 190 _O_O______O___ -1 21.0000 122.000 2 1010 0 0 0 20.5000 122.600 TD 25 1008 20.3000 122.500 6 7 21
1982339N07139 1982 103 WP MM ROGER 1982-12-11 03:00:00 TS 20.9629 122.508 main 193 193 _P_P__________ -1 20.9994 122.352 2 1009 0 0 20.8901 122.822 TD 25 1008 6 8 64
1982339N07139 1982 103 WP MM ROGER 1982-12-11 06:00:00 TS 21.0600 123.020 1008 tokyo main 234 234 _O_O__________ -1 21.0000 123.000 2 1008 0 0 0 21.3000 123.100 TD 25 1008 6 14 68
1982339N07139 1982 103 WP MM ROGER 1982-12-11 09:00:00 TS 21.5005 123.922 main 313 313 _P____________ -1 21.5005 123.922 2 1009 0 0 TD 6 21 63
1982339N07139 1982 103 WP MM ROGER 1982-12-11 12:00:00 TS 22.0000 125.000 1010 tokyo main 389 389 _O____________ -1 22.0000 125.000 2 1010 0 0 0 21 72
1982339N07139 1982 103 WP MM ROGER 1982-12-11 15:00:00 TS 22.1255 126.027 main 485 485 _P____________ -1 22.1255 126.027 2 1010 0 0 19 90
1982339N07139 1982 103 WP MM ROGER 1982-12-11 18:00:00 TS 22.0000 127.000 1010 tokyo main 587 _O____________ -1 22.0000 127.000 2 1010 0 0 0 18 98

デジタル台風データ・検索

IBTrACS Databaseについて

本データベースは、米国NOAAが公開する1842年以降の世界の熱帯低気圧のベストトラックデータアーカイブInternational Best Track Archive for Climate Stewardship (IBTrACS)を、ウェブで閲覧しやすい形式に変換したものです。

最終更新日:2021-11-26